Time;durP1;ratioP1;P1;durP2;ratioP2;P2;SDS_P1;SDS_P2;PMS_P1;PMS_P2;Temp;Humidity;BMP_temperature;BMP_pressure;BME280_temperature;BME280_humidity;BME280_pressure;Samples;Min_cycle;Max_cycle;Signal;HPM_P1;HPM_P2
2024/01/25 00:00:55;;;;;;;0.08;0.08;;;6.70;99.90;;;;;;5088989;28;20048;-86
2024/01/25 00:03:20;;;;;;;12.02;1.85;;;6.60;99.90;;;;;;5091371;28;20060;-86
2024/01/25 00:05:47;;;;;;;26.05;0.88;;;6.60;99.90;;;;;;5080343;28;20048;-85
2024/01/25 00:08:12;;;;;;;1.85;1.40;;;6.60;99.90;;;;;;5090915;28;20051;-86
2024/01/25 00:10:38;;;;;;;0.00;0.00;;;6.60;99.90;;;;;;5090859;28;20064;-86
2024/01/25 00:13:04;;;;;;;0.73;0.73;;;6.50;99.90;;;;;;5096081;28;20673;-85
2024/01/25 00:15:29;;;;;;;1.45;0.75;;;6.50;99.90;;;;;;5094303;28;20094;-86
2024/01/25 00:17:56;;;;;;;14.18;0.88;;;6.60;99.90;;;;;;5066810;28;20421;-85
2024/01/25 00:20:22;;;;;;;1.30;0.77;;;6.70;99.90;;;;;;5093565;28;20051;-85
2024/01/25 00:22:47;;;;;;;0.85;0.80;;;6.80;99.90;;;;;;5076060;28;20067;-85
2024/01/25 00:25:13;;;;;;;0.08;0.08;;;6.70;99.90;;;;;;5089240;28;20098;-86
2024/01/25 00:27:38;;;;;;;0.57;0.50;;;6.60;99.90;;;;;;5064137;28;20079;-85
2024/01/25 00:30:05;;;;;;;0.65;0.65;;;6.40;99.90;;;;;;5067037;28;20444;-85
2024/01/25 00:32:30;;;;;;;0.10;0.10;;;6.30;99.90;;;;;;5069285;28;20451;-85
2024/01/25 00:34:56;;;;;;;8.90;1.42;;;6.30;99.90;;;;;;5091499;28;20078;-85
2024/01/25 00:37:22;;;;;;;1.27;0.50;;;6.30;99.90;;;;;;5093930;28;20062;-85
2024/01/25 00:39:49;;;;;;;1.92;1.33;;;6.20;99.90;;;;;;5094205;28;20059;-85
2024/01/25 00:42:16;;;;;;;0.10;0.10;;;6.20;1.00;;;;;;5090608;28;20130;-85
2024/01/25 00:44:42;;;;;;;1.48;1.38;;;6.10;1.00;;;;;;5064031;28;20413;-86
2024/01/25 00:47:08;;;;;;;0.88;0.50;;;6.10;63.20;;;;;;5091736;28;20055;-85
2024/01/25 00:49:35;;;;;;;1.90;1.52;;;6.00;14.70;;;;;;5089730;28;20178;-85
2024/01/25 00:52:03;;;;;;;0.25;0.22;;;6.00;52.00;;;;;;5093334;28;20051;-85
2024/01/25 00:54:29;;;;;;;0.30;0.30;;;5.90;99.90;;;;;;5070369;28;20051;-86
2024/01/25 00:56:54;;;;;;;0.00;0.00;;;5.90;99.90;;;;;;5097684;28;20051;-85
2024/01/25 00:59:21;;;;;;;8.63;0.68;;;5.90;99.90;;;;;;5096584;28;20047;-85
2024/01/25 01:01:48;;;;;;;0.55;0.15;;;5.80;99.90;;;;;;5067658;28;20073;-85
2024/01/25 01:04:17;;;;;;;0.00;0.00;;;5.80;1.00;;;;;;5093853;28;20092;-85
2024/01/25 01:06:43;;;;;;;0.00;0.00;;;5.90;99.90;;;;;;5097161;28;20412;-85
2024/01/25 01:09:08;;;;;;;0.25;0.25;;;5.90;99.90;;;;;;5096950;28;20044;-85
2024/01/25 01:11:36;;;;;;;3.10;1.25;;;6.00;99.90;;;;;;5097321;28;20047;-86
2024/01/25 01:14:02;;;;;;;1.70;1.60;;;6.00;99.90;;;;;;5097429;28;20047;-85
2024/01/25 01:16:30;;;;;;;0.00;0.00;;;6.00;99.90;;;;;;5071105;28;20062;-85
2024/01/25 01:18:56;;;;;;;0.68;0.43;;;5.90;99.90;;;;;;5093775;28;20086;-85
2024/01/25 01:21:21;;;;;;;0.88;0.77;;;5.90;1.00;;;;;;5091771;28;20445;-86
2024/01/25 01:23:47;;;;;;;0.50;0.43;;;5.80;1.00;;;;;;5069501;28;20056;-85
2024/01/25 01:26:12;;;;;;;0.50;0.50;;;5.80;99.90;;;;;;5101070;28;20047;-86
2024/01/25 01:28:38;;;;;;;0.57;0.57;;;5.80;1.00;;;;;;5101506;28;20048;-85
2024/01/25 01:31:04;;;;;;;0.08;0.08;;;5.80;1.00;;;;;;5094008;28;20047;-85
2024/01/25 01:33:29;;;;;;;2.10;1.02;;;5.80;1.00;;;;;;5093558;28;20140;-85
2024/01/25 01:35:55;;;;;;;0.00;0.00;;;5.70;1.00;;;;;;5085951;28;20541;-85
2024/01/25 01:38:20;;;;;;;6.05;1.80;;;5.60;29.00;;;;;;5097135;28;20039;-85
2024/01/25 01:40:46;;;;;;;8.20;1.60;;;5.60;99.90;;;;;;5096776;28;20138;-85
2024/01/25 01:43:19;;;;;;;1.65;0.85;;;5.60;99.90;;;;;;5096632;28;20132;-85
2024/01/25 01:45:45;;;;;;;0.50;0.50;;;5.60;99.90;;;;;;5096369;28;20122;-85
2024/01/25 01:48:11;;;;;;;0.15;0.15;;;5.50;99.90;;;;;;5096250;28;20413;-85
2024/01/25 01:50:38;;;;;;;2.17;0.50;;;5.60;99.90;;;;;;5096417;28;20047;-85
2024/01/25 01:53:04;;;;;;;3.03;1.35;;;5.50;99.90;;;;;;5088535;28;20052;-85
2024/01/25 01:55:31;;;;;;;0.50;0.50;;;5.50;99.90;;;;;;5101352;28;20047;-85
2024/01/25 01:57:57;;;;;;;0.10;0.10;;;5.50;1.00;;;;;;5092973;28;20055;-85
2024/01/25 02:00:24;;;;;;;0.70;0.63;;;5.40;1.00;;;;;;5094241;28;20417;-85
2024/01/25 02:02:50;;;;;;;0.10;0.10;;;6.00;17.80;;;;;;5094819;28;20421;-85
2024/01/25 02:05:16;;;;;;;1.75;1.63;;;5.30;99.90;;;;;;5078368;28;20104;-86
2024/01/25 02:07:42;;;;;;;0.20;0.20;;;5.30;99.90;;;;;;5095482;28;20142;-85
2024/01/25 02:10:09;;;;;;;0.08;0.08;;;5.20;99.90;;;;;;5080184;28;20105;-85
2024/01/25 02:12:35;;;;;;;2.85;1.17;;;5.20;99.90;;;;;;5093667;28;20444;-85
2024/01/25 02:15:01;;;;;;;0.35;0.35;;;5.20;99.90;;;;;;5091809;28;20134;-85
2024/01/25 02:17:26;;;;;;;0.00;0.00;;;5.20;99.90;;;;;;5049447;28;20606;-85
2024/01/25 02:19:52;;;;;;;0.17;0.17;;;5.20;99.90;;;;;;5101148;28;20061;-85
2024/01/25 02:22:19;;;;;;;0.65;0.65;;;5.10;99.90;;;;;;5092832;28;20118;-85
2024/01/25 02:24:45;;;;;;;0.00;0.00;;;5.10;1.00;;;;;;5066438;28;20078;-85
2024/01/25 02:27:11;;;;;;;0.43;0.43;;;5.00;80.00;;;;;;5095986;28;20047;-85
2024/01/25 02:29:36;;;;;;;0.95;0.63;;;5.10;56.40;;;;;;5095536;28;20130;-85
2024/01/25 02:32:02;;;;;;;0.10;0.10;;;5.10;4.30;;;;;;5068504;28;20052;-85
2024/01/25 02:34:28;;;;;;;0.35;0.35;;;5.00;99.90;;;;;;5095360;28;20051;-85
2024/01/25 02:36:54;;;;;;;3.35;2.72;;;5.00;99.90;;;;;;5068239;28;20468;-85
2024/01/25 02:39:20;;;;;;;1.80;0.85;;;5.00;99.90;;;;;;5065831;28;20428;-86
2024/01/25 02:41:45;;;;;;;1.45;1.35;;;5.00;99.90;;;;;;5091477;28;20512;-85
2024/01/25 02:44:11;;;;;;;1.42;1.33;;;5.00;99.90;;;;;;5093896;28;20126;-85
2024/01/25 02:46:37;;;;;;;7.60;2.63;;;5.00;99.90;;;;;;5095613;28;20576;-85
2024/01/25 02:49:03;;;;;;;1.55;1.30;;;5.00;99.90;;;;;;5086709;28;20098;-85
2024/01/25 02:51:29;;;;;;;0.40;0.40;;;4.90;99.90;;;;;;5068442;28;20085;-85
